Mart, Texas
Current Conditions -  °F | °C
As of 10:55 AM on Friday 28 Nov 2014 (Local Time) from KLXY Reporting Station
Broken Clouds Broken Clouds  
Wind Chill: 60°   Ceiling: 3200
Heat Index: 60°   Visibility: 10mi
Dew Point: 47°   Wind: 14mph
Humidity: 62%   Direction: 170°S
Pressure: 30.26"   Gusts: NA
Location:  31.54°N, 96.83°W
Report Text: KLXY 281655Z AUTO 17012KT 10SM SCT023 BKN032 15/08 A3026 RMK AO2 T01540081
Loading
Personal Weather Stations






























Interactive Weather Map New forecast layout! Learn more

10-Day Weather Forecast

Advertisements
Track Severe Weather on mobile